sensor_id;sensor_type;location;lat;lon;timestamp;temperature;humidity
68177;DHT22;56478;50.982;7.032;2024-02-16T00:00:17;13.29;73.85
68177;DHT22;56478;50.982;7.032;2024-02-16T00:02:44;13.29;73.72
68177;DHT22;56478;50.982;7.032;2024-02-16T00:05:10;13.29;73.67
68177;DHT22;56478;50.982;7.032;2024-02-16T00:07:39;13.29;73.71
68177;DHT22;56478;50.982;7.032;2024-02-16T00:10:06;13.30;73.62
68177;DHT22;56478;50.982;7.032;2024-02-16T00:12:32;13.33;73.45
68177;DHT22;56478;50.982;7.032;2024-02-16T00:14:59;13.39;73.24
68177;DHT22;56478;50.982;7.032;2024-02-16T00:17:25;13.42;73.14
68177;DHT22;56478;50.982;7.032;2024-02-16T00:19:53;13.46;73.01
68177;DHT22;56478;50.982;7.032;2024-02-16T00:22:19;13.42;73.09
68177;DHT22;56478;50.982;7.032;2024-02-16T00:24:44;13.42;73.22
68177;DHT22;56478;50.982;7.032;2024-02-16T00:27:10;13.39;73.34
68177;DHT22;56478;50.982;7.032;2024-02-16T00:29:36;13.37;73.40
68177;DHT22;56478;50.982;7.032;2024-02-16T00:32:04;13.37;73.28
68177;DHT22;56478;50.982;7.032;2024-02-16T00:34:32;13.35;73.51
68177;DHT22;56478;50.982;7.032;2024-02-16T00:37:01;13.39;73.22
68177;DHT22;56478;50.982;7.032;2024-02-16T00:39:26;13.39;73.14
68177;DHT22;56478;50.982;7.032;2024-02-16T00:41:52;13.42;73.08
68177;DHT22;56478;50.982;7.032;2024-02-16T00:44:18;13.43;72.95
68177;DHT22;56478;50.982;7.032;2024-02-16T00:46:44;13.44;72.92
68177;DHT22;56478;50.982;7.032;2024-02-16T00:49:10;13.40;73.02
68177;DHT22;56478;50.982;7.032;2024-02-16T00:51:37;13.39;73.28
68177;DHT22;56478;50.982;7.032;2024-02-16T00:54:03;13.36;73.57
68177;DHT22;56478;50.982;7.032;2024-02-16T00:56:29;13.26;74.14
68177;DHT22;56478;50.982;7.032;2024-02-16T00:58:55;13.18;74.35
68177;DHT22;56478;50.982;7.032;2024-02-16T01:01:21;13.15;74.59
68177;DHT22;56478;50.982;7.032;2024-02-16T01:03:50;13.16;74.34
68177;DHT22;56478;50.982;7.032;2024-02-16T01:06:17;13.18;74.71
68177;DHT22;56478;50.982;7.032;2024-02-16T01:08:43;13.30;73.71
68177;DHT22;56478;50.982;7.032;2024-02-16T01:11:09;13.32;73.74
68177;DHT22;56478;50.982;7.032;2024-02-16T01:13:35;13.37;73.46
68177;DHT22;56478;50.982;7.032;2024-02-16T01:16:02;13.40;73.30
68177;DHT22;56478;50.982;7.032;2024-02-16T01:18:28;13.37;73.33
68177;DHT22;56478;50.982;7.032;2024-02-16T01:20:54;13.30;74.00
68177;DHT22;56478;50.982;7.032;2024-02-16T01:23:21;13.39;73.01
68177;DHT22;56478;50.982;7.032;2024-02-16T01:25:47;13.42;73.08
68177;DHT22;56478;50.982;7.032;2024-02-16T01:28:13;13.35;73.25
68177;DHT22;56478;50.982;7.032;2024-02-16T01:30:39;13.35;73.46
68177;DHT22;56478;50.982;7.032;2024-02-16T01:33:05;13.36;73.19
68177;DHT22;56478;50.982;7.032;2024-02-16T01:35:34;13.36;73.08
68177;DHT22;56478;50.982;7.032;2024-02-16T01:38:00;13.36;73.29
68177;DHT22;56478;50.982;7.032;2024-02-16T01:40:27;13.36;73.34
68177;DHT22;56478;50.982;7.032;2024-02-16T01:42:53;13.36;73.20
68177;DHT22;56478;50.982;7.032;2024-02-16T01:45:19;13.37;73.19
68177;DHT22;56478;50.982;7.032;2024-02-16T01:47:46;13.40;73.11
68177;DHT22;56478;50.982;7.032;2024-02-16T01:50:15;13.40;73.03
68177;DHT22;56478;50.982;7.032;2024-02-16T01:52:42;13.43;72.81
68177;DHT22;56478;50.982;7.032;2024-02-16T01:55:09;13.42;72.91
68177;DHT22;56478;50.982;7.032;2024-02-16T01:57:36;13.43;73.05
68177;DHT22;56478;50.982;7.032;2024-02-16T02:00:03;13.47;72.66
68177;DHT22;56478;50.982;7.032;2024-02-16T02:02:28;13.47;72.62
68177;DHT22;56478;50.982;7.032;2024-02-16T02:04:54;13.54;72.48
68177;DHT22;56478;50.982;7.032;2024-02-16T02:07:24;13.60;72.22
68177;DHT22;56478;50.982;7.032;2024-02-16T02:09:51;13.61;72.06
68177;DHT22;56478;50.982;7.032;2024-02-16T02:12:16;13.58;72.36
68177;DHT22;56478;50.982;7.032;2024-02-16T02:14:43;13.58;72.21
68177;DHT22;56478;50.982;7.032;2024-02-16T02:17:09;13.67;71.92
68177;DHT22;56478;50.982;7.032;2024-02-16T02:19:35;13.67;71.91
68177;DHT22;56478;50.982;7.032;2024-02-16T02:22:00;13.70;71.87
68177;DHT22;56478;50.982;7.032;2024-02-16T02:24:26;13.74;71.87
68177;DHT22;56478;50.982;7.032;2024-02-16T02:26:52;13.72;71.88
68177;DHT22;56478;50.982;7.032;2024-02-16T02:29:17;13.74;72.28
68177;DHT22;56478;50.982;7.032;2024-02-16T02:31:43;13.77;72.21
68177;DHT22;56478;50.982;7.032;2024-02-16T02:34:09;13.72;72.70
68177;DHT22;56478;50.982;7.032;2024-02-16T02:36:35;13.68;72.94
68177;DHT22;56478;50.982;7.032;2024-02-16T02:39:01;13.63;73.17
68177;DHT22;56478;50.982;7.032;2024-02-16T02:41:27;13.64;73.20
68177;DHT22;56478;50.982;7.032;2024-02-16T02:43:52;13.63;73.19
68177;DHT22;56478;50.982;7.032;2024-02-16T02:46:18;13.60;73.57
68177;DHT22;56478;50.982;7.032;2024-02-16T02:48:44;13.55;73.48
68177;DHT22;56478;50.982;7.032;2024-02-16T02:51:11;13.61;73.43
68177;DHT22;56478;50.982;7.032;2024-02-16T02:53:37;13.60;73.54
68177;DHT22;56478;50.982;7.032;2024-02-16T02:56:03;13.60;73.33
68177;DHT22;56478;50.982;7.032;2024-02-16T02:58:28;13.57;73.76
68177;DHT22;56478;50.982;7.032;2024-02-16T03:00:54;13.61;73.44
68177;DHT22;56478;50.982;7.032;2024-02-16T03:03:21;13.63;73.46
68177;DHT22;56478;50.982;7.032;2024-02-16T03:05:47;13.58;73.77
68177;DHT22;56478;50.982;7.032;2024-02-16T03:08:13;13.61;73.51
68177;DHT22;56478;50.982;7.032;2024-02-16T03:10:40;13.54;75.60
68177;DHT22;56478;50.982;7.032;2024-02-16T03:13:06;13.60;74.35
68177;DHT22;56478;50.982;7.032;2024-02-16T03:15:34;13.51;75.29
68177;DHT22;56478;50.982;7.032;2024-02-16T03:18:01;13.51;75.27
68177;DHT22;56478;50.982;7.032;2024-02-16T03:20:27;13.46;75.62
68177;DHT22;56478;50.982;7.032;2024-02-16T03:22:53;13.39;75.94
68177;DHT22;56478;50.982;7.032;2024-02-16T03:25:18;13.29;76.96
68177;DHT22;56478;50.982;7.032;2024-02-16T03:27:45;13.30;76.30
68177;DHT22;56478;50.982;7.032;2024-02-16T03:30:10;13.32;76.24
68177;DHT22;56478;50.982;7.032;2024-02-16T03:32:36;13.29;76.13
68177;DHT22;56478;50.982;7.032;2024-02-16T03:35:01;13.36;75.81
68177;DHT22;56478;50.982;7.032;2024-02-16T03:37:27;13.35;75.46
68177;DHT22;56478;50.982;7.032;2024-02-16T03:39:53;13.32;75.35
68177;DHT22;56478;50.982;7.032;2024-02-16T03:42:21;13.29;75.52
68177;DHT22;56478;50.982;7.032;2024-02-16T03:44:47;13.27;75.50
68177;DHT22;56478;50.982;7.032;2024-02-16T03:47:13;13.19;75.76
68177;DHT22;56478;50.982;7.032;2024-02-16T03:49:39;13.16;75.91
68177;DHT22;56478;50.982;7.032;2024-02-16T03:52:05;13.13;76.04
68177;DHT22;56478;50.982;7.032;2024-02-16T03:54:30;13.13;76.09
68177;DHT22;56478;50.982;7.032;2024-02-16T03:56:57;13.12;76.57
68177;DHT22;56478;50.982;7.032;2024-02-16T03:59:23;13.12;76.55
68177;DHT22;56478;50.982;7.032;2024-02-16T04:01:49;13.12;76.53
68177;DHT22;56478;50.982;7.032;2024-02-16T04:04:15;13.16;76.48
68177;DHT22;56478;50.982;7.032;2024-02-16T04:06:41;13.11;77.09
68177;DHT22;56478;50.982;7.032;2024-02-16T04:09:07;13.16;76.64
68177;DHT22;56478;50.982;7.032;2024-02-16T04:11:33;13.13;76.68
68177;DHT22;56478;50.982;7.032;2024-02-16T04:13:59;13.15;76.41
68177;DHT22;56478;50.982;7.032;2024-02-16T04:16:25;13.11;76.40
68177;DHT22;56478;50.982;7.032;2024-02-16T04:18:51;13.08;76.58
68177;DHT22;56478;50.982;7.032;2024-02-16T04:21:17;13.09;76.39
68177;DHT22;56478;50.982;7.032;2024-02-16T04:23:44;13.05;76.50
68177;DHT22;56478;50.982;7.032;2024-02-16T04:26:10;12.99;76.89
68177;DHT22;56478;50.982;7.032;2024-02-16T04:28:35;13.02;76.90
68177;DHT22;56478;50.982;7.032;2024-02-16T04:31:01;13.05;76.84
68177;DHT22;56478;50.982;7.032;2024-02-16T04:33:27;13.08;76.96
68177;DHT22;56478;50.982;7.032;2024-02-16T04:35:53;13.05;77.23
68177;DHT22;56478;50.982;7.032;2024-02-16T04:38:18;13.05;77.37
68177;DHT22;56478;50.982;7.032;2024-02-16T04:40:45;13.03;77.70
68177;DHT22;56478;50.982;7.032;2024-02-16T04:43:11;13.05;77.76
68177;DHT22;56478;50.982;7.032;2024-02-16T04:45:37;13.03;78.09
68177;DHT22;56478;50.982;7.032;2024-02-16T04:48:06;13.02;78.32
68177;DHT22;56478;50.982;7.032;2024-02-16T04:50:33;13.08;78.28
68177;DHT22;56478;50.982;7.032;2024-02-16T04:52:59;13.09;78.43
68177;DHT22;56478;50.982;7.032;2024-02-16T04:55:24;13.09;78.61
68177;DHT22;56478;50.982;7.032;2024-02-16T04:57:50;13.11;78.84
68177;DHT22;56478;50.982;7.032;2024-02-16T05:00:16;13.12;78.86
68177;DHT22;56478;50.982;7.032;2024-02-16T05:02:42;13.19;78.77
68177;DHT22;56478;50.982;7.032;2024-02-16T05:05:07;13.20;78.92
68177;DHT22;56478;50.982;7.032;2024-02-16T05:07:33;13.15;79.17
68177;DHT22;56478;50.982;7.032;2024-02-16T05:10:01;13.15;79.10
68177;DHT22;56478;50.982;7.032;2024-02-16T05:12:27;13.22;78.93
68177;DHT22;56478;50.982;7.032;2024-02-16T05:14:53;13.22;79.05
68177;DHT22;56478;50.982;7.032;2024-02-16T05:17:19;13.24;78.85
68177;DHT22;56478;50.982;7.032;2024-02-16T05:19:48;13.22;79.03
68177;DHT22;56478;50.982;7.032;2024-02-16T05:22:13;13.16;79.12
68177;DHT22;56478;50.982;7.032;2024-02-16T05:24:40;13.18;79.25
68177;DHT22;56478;50.982;7.032;2024-02-16T05:27:05;13.23;78.62
68177;DHT22;56478;50.982;7.032;2024-02-16T05:29:31;13.24;78.85
68177;DHT22;56478;50.982;7.032;2024-02-16T05:31:56;13.20;78.88
68177;DHT22;56478;50.982;7.032;2024-02-16T05:34:22;13.20;78.84
68177;DHT22;56478;50.982;7.032;2024-02-16T05:36:50;13.23;78.55
68177;DHT22;56478;50.982;7.032;2024-02-16T05:39:15;13.27;78.23
68177;DHT22;56478;50.982;7.032;2024-02-16T05:41:52;13.19;78.64
68177;DHT22;56478;50.982;7.032;2024-02-16T05:44:19;13.18;78.59
68177;DHT22;56478;50.982;7.032;2024-02-16T05:46:45;13.27;78.23
68177;DHT22;56478;50.982;7.032;2024-02-16T05:49:11;13.26;78.15
68177;DHT22;56478;50.982;7.032;2024-02-16T05:51:40;13.22;78.43
68177;DHT22;56478;50.982;7.032;2024-02-16T05:54:06;13.23;78.19
68177;DHT22;56478;50.982;7.032;2024-02-16T05:56:33;13.19;78.31
68177;DHT22;56478;50.982;7.032;2024-02-16T05:59:02;13.11;78.93
68177;DHT22;56478;50.982;7.032;2024-02-16T06:01:29;13.18;78.51
68177;DHT22;56478;50.982;7.032;2024-02-16T06:03:55;13.18;78.38
68177;DHT22;56478;50.982;7.032;2024-02-16T06:06:20;13.19;78.23
68177;DHT22;56478;50.982;7.032;2024-02-16T06:08:46;13.24;78.17
68177;DHT22;56478;50.982;7.032;2024-02-16T06:11:11;13.24;77.96
68177;DHT22;56478;50.982;7.032;2024-02-16T06:13:37;13.20;78.25
68177;DHT22;56478;50.982;7.032;2024-02-16T06:16:05;13.24;77.90
68177;DHT22;56478;50.982;7.032;2024-02-16T06:18:34;13.27;77.61
68177;DHT22;56478;50.982;7.032;2024-02-16T06:21:00;13.26;77.87
68177;DHT22;56478;50.982;7.032;2024-02-16T06:23:26;13.09;78.55
68177;DHT22;56478;50.982;7.032;2024-02-16T06:25:51;13.20;78.01
68177;DHT22;56478;50.982;7.032;2024-02-16T06:28:17;13.19;78.06
68177;DHT22;56478;50.982;7.032;2024-02-16T06:30:42;13.23;77.87
68177;DHT22;56478;50.982;7.032;2024-02-16T06:33:08;13.23;77.76
68177;DHT22;56478;50.982;7.032;2024-02-16T06:35:33;13.23;77.89
68177;DHT22;56478;50.982;7.032;2024-02-16T06:37:59;13.20;77.97
68177;DHT22;56478;50.982;7.032;2024-02-16T06:40:24;13.24;77.78
68177;DHT22;56478;50.982;7.032;2024-02-16T06:42:52;13.20;78.02
68177;DHT22;56478;50.982;7.032;2024-02-16T06:45:17;13.20;78.05
68177;DHT22;56478;50.982;7.032;2024-02-16T06:47:43;13.29;77.61
68177;DHT22;56478;50.982;7.032;2024-02-16T06:50:08;13.30;77.54
68177;DHT22;56478;50.982;7.032;2024-02-16T06:52:34;13.24;77.86
68177;DHT22;56478;50.982;7.032;2024-02-16T06:55:00;13.37;77.20
68177;DHT22;56478;50.982;7.032;2024-02-16T06:57:25;13.43;77.33
68177;DHT22;56478;50.982;7.032;2024-02-16T06:59:51;13.42;77.40
68177;DHT22;56478;50.982;7.032;2024-02-16T07:02:18;13.51;76.91
68177;DHT22;56478;50.982;7.032;2024-02-16T07:04:44;13.51;76.98
68177;DHT22;56478;50.982;7.032;2024-02-16T07:07:11;13.54;76.73
68177;DHT22;56478;50.982;7.032;2024-02-16T07:09:37;13.60;76.71
68177;DHT22;56478;50.982;7.032;2024-02-16T07:12:06;13.55;76.77
68177;DHT22;56478;50.982;7.032;2024-02-16T07:14:32;13.47;77.50
68177;DHT22;56478;50.982;7.032;2024-02-16T07:16:58;13.46;77.26
68177;DHT22;56478;50.982;7.032;2024-02-16T07:19:23;13.50;77.17
68177;DHT22;56478;50.982;7.032;2024-02-16T07:21:50;13.63;76.95
68177;DHT22;56478;50.982;7.032;2024-02-16T07:24:16;13.63;76.91
68177;DHT22;56478;50.982;7.032;2024-02-16T07:26:41;13.57;77.18
68177;DHT22;56478;50.982;7.032;2024-02-16T07:29:07;13.55;77.43
68177;DHT22;56478;50.982;7.032;2024-02-16T07:31:36;13.64;77.13
68177;DHT22;56478;50.982;7.032;2024-02-16T07:34:02;13.57;77.42
68177;DHT22;56478;50.982;7.032;2024-02-16T07:36:29;13.65;77.25
68177;DHT22;56478;50.982;7.032;2024-02-16T07:38:55;13.81;76.62
68177;DHT22;56478;50.982;7.032;2024-02-16T07:41:21;13.81;76.45
68177;DHT22;56478;50.982;7.032;2024-02-16T07:43:46;13.79;76.15
68177;DHT22;56478;50.982;7.032;2024-02-16T07:46:12;13.85;76.03
68177;DHT22;56478;50.982;7.032;2024-02-16T07:48:38;13.94;75.77
68177;DHT22;56478;50.982;7.032;2024-02-16T07:51:03;13.91;75.90
68177;DHT22;56478;50.982;7.032;2024-02-16T07:53:30;13.95;75.64
68177;DHT22;56478;50.982;7.032;2024-02-16T07:55:56;14.02;75.35
68177;DHT22;56478;50.982;7.032;2024-02-16T07:58:22;14.04;75.19
68177;DHT22;56478;50.982;7.032;2024-02-16T08:00:47;13.97;75.62
68177;DHT22;56478;50.982;7.032;2024-02-16T08:03:13;14.01;75.68
68177;DHT22;56478;50.982;7.032;2024-02-16T08:05:38;14.02;75.71
68177;DHT22;56478;50.982;7.032;2024-02-16T08:08:04;14.06;75.41
68177;DHT22;56478;50.982;7.032;2024-02-16T08:10:30;14.12;75.50
68177;DHT22;56478;50.982;7.032;2024-02-16T08:12:55;14.13;75.11
68177;DHT22;56478;50.982;7.032;2024-02-16T08:15:21;14.12;74.83
68177;DHT22;56478;50.982;7.032;2024-02-16T08:17:51;14.08;75.26
68177;DHT22;56478;50.982;7.032;2024-02-16T08:20:17;13.92;75.90
68177;DHT22;56478;50.982;7.032;2024-02-16T08:22:42;13.97;75.54
68177;DHT22;56478;50.982;7.032;2024-02-16T08:25:08;14.02;75.48
68177;DHT22;56478;50.982;7.032;2024-02-16T08:27:33;14.02;76.04
68177;DHT22;56478;50.982;7.032;2024-02-16T08:29:59;14.10;75.74
68177;DHT22;56478;50.982;7.032;2024-02-16T08:32:27;14.06;75.95
68177;DHT22;56478;50.982;7.032;2024-02-16T08:34:53;14.22;75.19
68177;DHT22;56478;50.982;7.032;2024-02-16T08:37:19;14.26;74.83
68177;DHT22;56478;50.982;7.032;2024-02-16T08:39:44;14.29;75.18
68177;DHT22;56478;50.982;7.032;2024-02-16T08:42:09;14.33;74.42
68177;DHT22;56478;50.982;7.032;2024-02-16T08:44:36;14.34;74.66
68177;DHT22;56478;50.982;7.032;2024-02-16T08:47:04;14.37;74.98
68177;DHT22;56478;50.982;7.032;2024-02-16T08:49:29;14.30;75.74
68177;DHT22;56478;50.982;7.032;2024-02-16T08:51:56;14.43;74.61
68177;DHT22;56478;50.982;7.032;2024-02-16T08:54:22;14.51;74.52
68177;DHT22;56478;50.982;7.032;2024-02-16T08:56:47;14.63;73.88
68177;DHT22;56478;50.982;7.032;2024-02-16T08:59:13;14.68;74.03
68177;DHT22;56478;50.982;7.032;2024-02-16T09:01:39;14.65;74.37
68177;DHT22;56478;50.982;7.032;2024-02-16T09:04:05;14.69;73.86
68177;DHT22;56478;50.982;7.032;2024-02-16T09:06:31;14.60;74.45
68177;DHT22;56478;50.982;7.032;2024-02-16T09:08:57;14.68;73.99
68177;DHT22;56478;50.982;7.032;2024-02-16T09:11:23;14.68;74.24
68177;DHT22;56478;50.982;7.032;2024-02-16T09:13:49;14.81;73.55
68177;DHT22;56478;50.982;7.032;2024-02-16T09:16:15;14.78;73.99
68177;DHT22;56478;50.982;7.032;2024-02-16T09:18:40;14.95;72.92
68177;DHT22;56478;50.982;7.032;2024-02-16T09:21:06;15.00;73.05
68177;DHT22;56478;50.982;7.032;2024-02-16T09:23:33;15.10;72.70
68177;DHT22;56478;50.982;7.032;2024-02-16T09:25:58;15.16;72.31
68177;DHT22;56478;50.982;7.032;2024-02-16T09:28:29;15.13;72.27
68177;DHT22;56478;50.982;7.032;2024-02-16T09:30:56;14.95;73.31
68177;DHT22;56478;50.982;7.032;2024-02-16T09:33:22;15.00;72.86
68177;DHT22;56478;50.982;7.032;2024-02-16T09:35:48;14.92;73.17
68177;DHT22;56478;50.982;7.032;2024-02-16T09:38:14;14.86;73.46
68177;DHT22;56478;50.982;7.032;2024-02-16T09:40:40;14.89;73.39
68177;DHT22;56478;50.982;7.032;2024-02-16T09:43:05;14.86;73.50
68177;DHT22;56478;50.982;7.032;2024-02-16T09:45:32;14.88;73.67
68177;DHT22;56478;50.982;7.032;2024-02-16T09:47:58;14.95;73.94
68177;DHT22;56478;50.982;7.032;2024-02-16T09:50:24;15.06;73.26
68177;DHT22;56478;50.982;7.032;2024-02-16T09:52:50;15.09;73.58
68177;DHT22;56478;50.982;7.032;2024-02-16T09:55:17;15.14;73.14
68177;DHT22;56478;50.982;7.032;2024-02-16T09:57:43;15.16;72.96
68177;DHT22;56478;50.982;7.032;2024-02-16T10:00:10;15.07;73.16
68177;DHT22;56478;50.982;7.032;2024-02-16T10:02:42;14.98;73.80
68177;DHT22;56478;50.982;7.032;2024-02-16T10:07:41;15.03;73.25
68177;DHT22;56478;50.982;7.032;2024-02-16T10:10:28;15.00;73.77
68177;DHT22;56478;50.982;7.032;2024-02-16T10:13:01;14.75;75.14
68177;DHT22;56478;50.982;7.032;2024-02-16T10:15:29;14.74;75.16
68177;DHT22;56478;50.982;7.032;2024-02-16T10:18:01;14.69;75.25
68177;DHT22;56478;50.982;7.032;2024-02-16T10:20:27;14.61;75.56
68177;DHT22;56478;50.982;7.032;2024-02-16T10:23:09;14.65;75.61
68177;DHT22;56478;50.982;7.032;2024-02-16T10:25:36;14.71;75.12
68177;DHT22;56478;50.982;7.032;2024-02-16T10:28:06;14.82;74.75
68177;DHT22;56478;50.982;7.032;2024-02-16T10:30:38;14.82;74.64
68177;DHT22;56478;50.982;7.032;2024-02-16T10:33:05;14.84;75.70
68177;DHT22;56478;50.982;7.032;2024-02-16T10:35:33;14.75;75.41
68177;DHT22;56478;50.982;7.032;2024-02-16T10:38:01;14.74;74.81
68177;DHT22;56478;50.982;7.032;2024-02-16T10:40:31;14.64;75.48
68177;DHT22;56478;50.982;7.032;2024-02-16T10:43:01;14.72;75.47
68177;DHT22;56478;50.982;7.032;2024-02-16T10:45:30;14.74;75.67
68177;DHT22;56478;50.982;7.032;2024-02-16T10:47:56;14.68;75.85
68177;DHT22;56478;50.982;7.032;2024-02-16T10:50:22;14.51;76.64
68177;DHT22;56478;50.982;7.032;2024-02-16T10:52:49;14.57;76.59
68177;DHT22;56478;50.982;7.032;2024-02-16T10:55:15;14.68;76.24
68177;DHT22;56478;50.982;7.032;2024-02-16T10:57:41;14.72;76.39
68177;DHT22;56478;50.982;7.032;2024-02-16T11:00:10;14.56;77.30
68177;DHT22;56478;50.982;7.032;2024-02-16T11:02:55;14.57;77.26
68177;DHT22;56478;50.982;7.032;2024-02-16T11:05:41;14.50;77.60
68177;DHT22;56478;50.982;7.032;2024-02-16T11:08:17;14.45;78.47
68177;DHT22;56478;50.982;7.032;2024-02-16T11:10:59;14.43;78.37
68177;DHT22;56478;50.982;7.032;2024-02-16T11:13:26;14.45;78.54
68177;DHT22;56478;50.982;7.032;2024-02-16T11:16:03;14.41;78.79
68177;DHT22;56478;50.982;7.032;2024-02-16T11:18:32;14.45;78.55
68177;DHT22;56478;50.982;7.032;2024-02-16T11:21:02;14.38;78.85
68177;DHT22;56478;50.982;7.032;2024-02-16T11:23:30;14.43;78.92
68177;DHT22;56478;50.982;7.032;2024-02-16T11:26:14;14.48;78.79
68177;DHT22;56478;50.982;7.032;2024-02-16T11:28:41;14.56;78.45
68177;DHT22;56478;50.982;7.032;2024-02-16T11:31:07;14.60;78.47
68177;DHT22;56478;50.982;7.032;2024-02-16T11:33:33;14.54;78.74
68177;DHT22;56478;50.982;7.032;2024-02-16T11:36:00;14.64;78.74
68177;DHT22;56478;50.982;7.032;2024-02-16T11:38:27;14.65;78.74
68177;DHT22;56478;50.982;7.032;2024-02-16T11:41:04;14.67;78.69
68177;DHT22;56478;50.982;7.032;2024-02-16T11:43:30;14.71;78.72
68177;DHT22;56478;50.982;7.032;2024-02-16T11:45:58;14.69;79.03
68177;DHT22;56478;50.982;7.032;2024-02-16T11:48:26;14.77;79.02
68177;DHT22;56478;50.982;7.032;2024-02-16T11:51:00;14.91;78.18
68177;DHT22;56478;50.982;7.032;2024-02-16T11:53:26;15.06;77.68
68177;DHT22;56478;50.982;7.032;2024-02-16T11:55:51;14.85;78.01
68177;DHT22;56478;50.982;7.032;2024-02-16T11:58:17;14.91;78.10
68177;DHT22;56478;50.982;7.032;2024-02-16T12:00:47;14.85;78.35
68177;DHT22;56478;50.982;7.032;2024-02-16T12:03:33;14.86;78.50
68177;DHT22;56478;50.982;7.032;2024-02-16T12:05:59;14.98;77.92
68177;DHT22;56478;50.982;7.032;2024-02-16T12:08:32;14.95;78.27
68177;DHT22;56478;50.982;7.032;2024-02-16T12:10:59;14.85;79.27
68177;DHT22;56478;50.982;7.032;2024-02-16T12:13:25;14.93;78.78
68177;DHT22;56478;50.982;7.032;2024-02-16T12:15:51;14.67;80.43
68177;DHT22;56478;50.982;7.032;2024-02-16T12:18:24;14.69;80.14
68177;DHT22;56478;50.982;7.032;2024-02-16T12:21:06;14.85;79.78
68177;DHT22;56478;50.982;7.032;2024-02-16T12:23:32;14.77;80.54
68177;DHT22;56478;50.982;7.032;2024-02-16T12:25:59;14.72;80.60
68177;DHT22;56478;50.982;7.032;2024-02-16T12:28:25;14.78;80.54
68177;DHT22;56478;50.982;7.032;2024-02-16T12:30:55;14.79;80.50
68177;DHT22;56478;50.982;7.032;2024-02-16T12:33:22;14.82;80.45
68177;DHT22;56478;50.982;7.032;2024-02-16T12:35:48;14.77;80.71
68177;DHT22;56478;50.982;7.032;2024-02-16T12:38:13;14.79;80.96
68177;DHT22;56478;50.982;7.032;2024-02-16T12:40:42;14.81;81.20
68177;DHT22;56478;50.982;7.032;2024-02-16T12:43:08;14.72;81.66
68177;DHT22;56478;50.982;7.032;2024-02-16T12:45:37;14.65;82.04
68177;DHT22;56478;50.982;7.032;2024-02-16T12:48:02;14.67;81.82
68177;DHT22;56478;50.982;7.032;2024-02-16T12:50:29;14.63;82.03
68177;DHT22;56478;50.982;7.032;2024-02-16T12:52:55;14.69;81.65
68177;DHT22;56478;50.982;7.032;2024-02-16T12:55:20;14.60;83.11
68177;DHT22;56478;50.982;7.032;2024-02-16T12:57:46;14.54;82.80
68177;DHT22;56478;50.982;7.032;2024-02-16T13:00:12;14.51;83.37
68177;DHT22;56478;50.982;7.032;2024-02-16T13:02:38;14.54;82.69
68177;DHT22;56478;50.982;7.032;2024-02-16T13:05:04;14.65;82.18
68177;DHT22;56478;50.982;7.032;2024-02-16T13:07:29;14.74;82.35
68177;DHT22;56478;50.982;7.032;2024-02-16T13:09:55;14.68;83.24
68177;DHT22;56478;50.982;7.032;2024-02-16T13:12:20;14.65;84.08
68177;DHT22;56478;50.982;7.032;2024-02-16T13:14:49;14.54;85.57
68177;DHT22;56478;50.982;7.032;2024-02-16T13:17:14;14.50;85.53
68177;DHT22;56478;50.982;7.032;2024-02-16T13:19:40;14.43;85.83
68177;DHT22;56478;50.982;7.032;2024-02-16T13:22:05;14.41;85.88
68177;DHT22;56478;50.982;7.032;2024-02-16T13:24:31;14.43;85.60
68177;DHT22;56478;50.982;7.032;2024-02-16T13:26:56;14.27;86.60
68177;DHT22;56478;50.982;7.032;2024-02-16T13:29:22;14.20;86.75
68177;DHT22;56478;50.982;7.032;2024-02-16T13:31:48;14.23;86.68
68177;DHT22;56478;50.982;7.032;2024-02-16T13:34:14;14.16;87.73
68177;DHT22;56478;50.982;7.032;2024-02-16T13:36:42;14.22;87.70
68177;DHT22;56478;50.982;7.032;2024-02-16T13:39:08;14.34;86.53
68177;DHT22;56478;50.982;7.032;2024-02-16T13:41:34;14.30;87.04
68177;DHT22;56478;50.982;7.032;2024-02-16T13:43:59;14.37;87.06
68177;DHT22;56478;50.982;7.032;2024-02-16T13:46:25;14.34;87.20
68177;DHT22;56478;50.982;7.032;2024-02-16T13:48:51;14.29;87.55
68177;DHT22;56478;50.982;7.032;2024-02-16T13:51:16;14.16;88.61
68177;DHT22;56478;50.982;7.032;2024-02-16T13:53:42;14.20;88.07
68177;DHT22;56478;50.982;7.032;2024-02-16T13:56:08;14.23;88.16
68177;DHT22;56478;50.982;7.032;2024-02-16T13:58:33;14.19;88.37
68177;DHT22;56478;50.982;7.032;2024-02-16T14:01:00;14.12;89.05
68177;DHT22;56478;50.982;7.032;2024-02-16T14:03:28;14.23;88.51
68177;DHT22;56478;50.982;7.032;2024-02-16T14:05:54;14.20;88.86
68177;DHT22;56478;50.982;7.032;2024-02-16T14:08:20;14.13;89.34
68177;DHT22;56478;50.982;7.032;2024-02-16T14:10:45;14.15;89.53
68177;DHT22;56478;50.982;7.032;2024-02-16T14:13:11;14.10;89.76
68177;DHT22;56478;50.982;7.032;2024-02-16T14:15:36;14.13;89.78
68177;DHT22;56478;50.982;7.032;2024-02-16T14:18:02;14.15;89.81
68177;DHT22;56478;50.982;7.032;2024-02-16T14:20:28;14.04;90.26
68177;DHT22;56478;50.982;7.032;2024-02-16T14:22:54;14.05;90.59
68177;DHT22;56478;50.982;7.032;2024-02-16T14:25:20;14.04;90.36
68177;DHT22;56478;50.982;7.032;2024-02-16T14:27:45;14.02;90.39
68177;DHT22;56478;50.982;7.032;2024-02-16T14:30:12;14.08;90.14
68177;DHT22;56478;50.982;7.032;2024-02-16T14:32:38;14.05;90.40
68177;DHT22;56478;50.982;7.032;2024-02-16T14:35:04;14.06;90.36
68177;DHT22;56478;50.982;7.032;2024-02-16T14:37:31;14.12;90.19
68177;DHT22;56478;50.982;7.032;2024-02-16T14:39:57;14.13;90.09
68177;DHT22;56478;50.982;7.032;2024-02-16T14:42:25;14.10;90.33
68177;DHT22;56478;50.982;7.032;2024-02-16T14:44:50;14.12;90.33
68177;DHT22;56478;50.982;7.032;2024-02-16T14:47:16;14.10;89.63
68177;DHT22;56478;50.982;7.032;2024-02-16T14:49:42;14.13;89.54
68177;DHT22;56478;50.982;7.032;2024-02-16T14:52:08;14.12;90.10
68177;DHT22;56478;50.982;7.032;2024-02-16T14:54:35;14.10;90.08
68177;DHT22;56478;50.982;7.032;2024-02-16T14:57:00;14.05;90.39
68177;DHT22;56478;50.982;7.032;2024-02-16T14:59:26;14.04;90.75
68177;DHT22;56478;50.982;7.032;2024-02-16T15:01:52;14.05;91.09
68177;DHT22;56478;50.982;7.032;2024-02-16T15:04:18;14.02;91.26
68177;DHT22;56478;50.982;7.032;2024-02-16T15:06:43;14.02;91.54
68177;DHT22;56478;50.982;7.032;2024-02-16T15:09:09;14.02;91.45
68177;DHT22;56478;50.982;7.032;2024-02-16T15:11:35;14.09;91.35
68177;DHT22;56478;50.982;7.032;2024-02-16T15:14:04;14.02;91.47
68177;DHT22;56478;50.982;7.032;2024-02-16T15:16:29;14.06;91.54
68177;DHT22;56478;50.982;7.032;2024-02-16T15:18:56;14.10;91.44
68177;DHT22;56478;50.982;7.032;2024-02-16T15:21:21;14.06;91.50
68177;DHT22;56478;50.982;7.032;2024-02-16T15:23:47;14.06;91.63
68177;DHT22;56478;50.982;7.032;2024-02-16T15:26:12;14.05;91.82
68177;DHT22;56478;50.982;7.032;2024-02-16T15:28:38;14.04;91.71